FJDG

Diego Garcia Nsf Airport

Camp Justice, , British Indian Ocean Territory
METAR FJDG 151310Z 00000KT 9000 -SHSRA FEW020 SCT050 BKN080 30/26 A2986 RMK SLP108
Observed Flight Rules
Dec-15 @ 13:10 UTC (49 minutes ago) Visual Flight Rules
Wind Visibility Clouds Conditions
Calm 8,996 meters
  • Few at 2,000' AGL
  • Scattered at 5,000' AGL
  • Broken at 8,000' AGL
  • Rain
Temperatures Readings
Current 30°C / 86°F
Dewpoint 26°C / 79°F
Humidity 79%
Altimeter 29.86" Hg
Pressure 1010.8 hPa
Elevation 3
METAR FJDG 151310Z 00000KT 9000 -SHSRA FEW020 SCT050 BKN080 30/26 A2986 RMK SLP108
Observed Flight Rules
Dec-15 @ 13:10 UTC
(49 minutes ago)
VFR
Wind Visibility
Calm 8,996 meters
Clouds
  • Few at 2,000' AGL
  • Scattered at 5,000' AGL
  • Broken at 8,000' AGL
Conditions
  • Rain
Temperature Dewpoint
30°C / 86°F 26°C / 79°F
Humidity Altimeter Pressure
79% 29.86" Hg 1010.8 hPa